sensor_id;sensor_type;location;lat;lon;timestamp;pressure;altitude;pressure_sealevel;temperature;humidity
54978;BME280;40873;47.522;19.106;2022-12-18T00:01:17;101755.31;;;-2.86;100.00
54978;BME280;40873;47.522;19.106;2022-12-18T00:03:44;101752.06;;;-2.76;100.00
54978;BME280;40873;47.522;19.106;2022-12-18T00:06:12;101761.56;;;-2.73;100.00
54978;BME280;40873;47.522;19.106;2022-12-18T00:08:41;101764.09;;;-2.78;100.00
54978;BME280;40873;47.522;19.106;2022-12-18T00:11:13;101777.75;;;-2.83;100.00
54978;BME280;40873;47.522;19.106;2022-12-18T00:13:41;101781.19;;;-2.84;100.00
54978;BME280;40873;47.522;19.106;2022-12-18T00:16:11;101784.38;;;-2.99;100.00
54978;BME280;40873;47.522;19.106;2022-12-18T00:18:39;101796.47;;;-2.95;100.00
54978;BME280;40873;47.522;19.106;2022-12-18T00:21:08;101799.16;;;-2.89;100.00
54978;BME280;40873;47.522;19.106;2022-12-18T00:23:37;101808.66;;;-2.88;100.00
54978;BME280;40873;47.522;19.106;2022-12-18T00:26:07;101808.44;;;-3.00;100.00
54978;BME280;40873;47.522;19.106;2022-12-18T00:28:36;101819.69;;;-2.96;100.00
54978;BME280;40873;47.522;19.106;2022-12-18T00:31:09;101827.63;;;-2.86;100.00
54978;BME280;40873;47.522;19.106;2022-12-18T00:33:39;101826.75;;;-2.86;100.00
54978;BME280;40873;47.522;19.106;2022-12-18T00:36:12;101831.06;;;-2.87;100.00
54978;BME280;40873;47.522;19.106;2022-12-18T00:38:40;101821.47;;;-2.92;100.00
54978;BME280;40873;47.522;19.106;2022-12-18T00:41:08;101823.50;;;-2.76;100.00
54978;BME280;40873;47.522;19.106;2022-12-18T00:43:37;101826.09;;;-2.76;100.00
54978;BME280;40873;47.522;19.106;2022-12-18T00:46:04;101828.69;;;-2.74;100.00
54978;BME280;40873;47.522;19.106;2022-12-18T00:48:32;101836.34;;;-2.79;100.00
54978;BME280;40873;47.522;19.106;2022-12-18T00:50:59;101841.38;;;-2.88;100.00
54978;BME280;40873;47.522;19.106;2022-12-18T00:53:26;101839.63;;;-2.89;100.00
54978;BME280;40873;47.522;19.106;2022-12-18T00:55:52;101837.19;;;-2.80;100.00
54978;BME280;40873;47.522;19.106;2022-12-18T00:58:19;101833.97;;;-2.70;100.00
54978;BME280;40873;47.522;19.106;2022-12-18T01:00:46;101844.22;;;-2.73;100.00
54978;BME280;40873;47.522;19.106;2022-12-18T01:03:13;101847.28;;;-2.94;100.00
54978;BME280;40873;47.522;19.106;2022-12-18T01:05:41;101859.34;;;-2.93;100.00
54978;BME280;40873;47.522;19.106;2022-12-18T01:08:09;101853.44;;;-2.86;100.00
54978;BME280;40873;47.522;19.106;2022-12-18T01:10:36;101859.56;;;-2.82;100.00
54978;BME280;40873;47.522;19.106;2022-12-18T01:13:03;101855.03;;;-2.92;100.00
54978;BME280;40873;47.522;19.106;2022-12-18T01:15:29;101852.41;;;-2.97;100.00
54978;BME280;40873;47.522;19.106;2022-12-18T01:17:57;101857.56;;;-2.97;100.00
54978;BME280;40873;47.522;19.106;2022-12-18T01:20:23;101867.97;;;-2.92;100.00
54978;BME280;40873;47.522;19.106;2022-12-18T01:22:50;101865.38;;;-2.92;100.00
54978;BME280;40873;47.522;19.106;2022-12-18T01:25:17;101866.28;;;-2.92;100.00
54978;BME280;40873;47.522;19.106;2022-12-18T01:27:44;101864.25;;;-3.07;100.00
54978;BME280;40873;47.522;19.106;2022-12-18T01:30:11;101868.63;;;-3.03;100.00
54978;BME280;40873;47.522;19.106;2022-12-18T01:32:38;101870.59;;;-2.91;100.00
54978;BME280;40873;47.522;19.106;2022-12-18T01:35:06;101877.22;;;-3.05;100.00
54978;BME280;40873;47.522;19.106;2022-12-18T01:37:33;101876.47;;;-2.98;100.00
54978;BME280;40873;47.522;19.106;2022-12-18T01:40:00;101874.97;;;-2.87;100.00
54978;BME280;40873;47.522;19.106;2022-12-18T01:42:27;101878.38;;;-2.88;100.00
54978;BME280;40873;47.522;19.106;2022-12-18T01:50:13;101888.66;;;-2.91;100.00
54978;BME280;40873;47.522;19.106;2022-12-18T01:52:44;101897.31;;;-2.89;100.00
54978;BME280;40873;47.522;19.106;2022-12-18T01:55:12;101899.06;;;-2.86;100.00
54978;BME280;40873;47.522;19.106;2022-12-18T01:57:40;101899.13;;;-2.85;100.00
54978;BME280;40873;47.522;19.106;2022-12-18T02:00:12;101900.88;;;-2.82;100.00
54978;BME280;40873;47.522;19.106;2022-12-18T02:02:44;101901.78;;;-2.80;100.00
54978;BME280;40873;47.522;19.106;2022-12-18T02:05:15;101904.50;;;-2.72;100.00
54978;BME280;40873;47.522;19.106;2022-12-18T02:14:05;101912.69;;;-2.50;100.00
54978;BME280;40873;47.522;19.106;2022-12-18T02:22:36;101918.41;;;-2.64;100.00
54978;BME280;40873;47.522;19.106;2022-12-18T02:27:59;101931.88;;;-2.82;100.00
54978;BME280;40873;47.522;19.106;2022-12-18T02:30:31;101932.00;;;-2.76;100.00
54978;BME280;40873;47.522;19.106;2022-12-18T02:33:01;101930.25;;;-2.77;100.00
54978;BME280;40873;47.522;19.106;2022-12-18T02:35:32;101923.41;;;-2.75;100.00
54978;BME280;40873;47.522;19.106;2022-12-18T02:38:00;101940.88;;;-2.62;100.00
54978;BME280;40873;47.522;19.106;2022-12-18T02:40:29;101938.88;;;-2.77;100.00
54978;BME280;40873;47.522;19.106;2022-12-18T02:43:06;101946.69;;;-2.72;100.00
54978;BME280;40873;47.522;19.106;2022-12-18T02:45:33;101944.06;;;-2.75;100.00
54978;BME280;40873;47.522;19.106;2022-12-18T02:48:00;101944.03;;;-2.78;100.00
54978;BME280;40873;47.522;19.106;2022-12-18T02:50:45;101954.16;;;-2.87;100.00
54978;BME280;40873;47.522;19.106;2022-12-18T02:53:24;101956.75;;;-2.86;100.00
54978;BME280;40873;47.522;19.106;2022-12-18T02:56:19;101960.28;;;-2.82;100.00
54978;BME280;40873;47.522;19.106;2022-12-18T02:59:04;101961.81;;;-2.92;100.00
54978;BME280;40873;47.522;19.106;2022-12-18T03:06:48;101970.50;;;-2.87;100.00
54978;BME280;40873;47.522;19.106;2022-12-18T03:09:27;101973.91;;;-2.91;100.00
54978;BME280;40873;47.522;19.106;2022-12-18T03:12:06;101975.59;;;-2.91;100.00
54978;BME280;40873;47.522;19.106;2022-12-18T03:15:04;101978.19;;;-2.91;100.00
54978;BME280;40873;47.522;19.106;2022-12-18T03:18:06;101989.34;;;-2.92;100.00
54978;BME280;40873;47.522;19.106;2022-12-18T03:20:34;101982.53;;;-2.89;100.00
54978;BME280;40873;47.522;19.106;2022-12-18T03:23:07;101984.06;;;-2.98;100.00
54978;BME280;40873;47.522;19.106;2022-12-18T03:25:39;101989.22;;;-2.98;100.00
54978;BME280;40873;47.522;19.106;2022-12-18T03:28:12;101989.28;;;-2.95;100.00
54978;BME280;40873;47.522;19.106;2022-12-18T03:30:41;102000.59;;;-2.90;100.00
54978;BME280;40873;47.522;19.106;2022-12-18T03:33:16;102003.84;;;-2.99;100.00
54978;BME280;40873;47.522;19.106;2022-12-18T03:35:46;102002.00;;;-3.05;100.00
54978;BME280;40873;47.522;19.106;2022-12-18T03:38:13;102007.22;;;-3.01;100.00
54978;BME280;40873;47.522;19.106;2022-12-18T03:40:56;102012.25;;;-3.08;100.00
54978;BME280;40873;47.522;19.106;2022-12-18T03:46:05;102018.38;;;-3.04;100.00
54978;BME280;40873;47.522;19.106;2022-12-18T03:49:08;102024.41;;;-3.04;100.00
54978;BME280;40873;47.522;19.106;2022-12-18T03:51:40;102023.44;;;-3.07;100.00
54978;BME280;40873;47.522;19.106;2022-12-18T03:54:09;102018.22;;;-3.10;100.00
54978;BME280;40873;47.522;19.106;2022-12-18T03:56:42;102012.25;;;-3.08;100.00
54978;BME280;40873;47.522;19.106;2022-12-18T03:59:12;102014.09;;;-3.02;100.00
54978;BME280;40873;47.522;19.106;2022-12-18T04:01:46;102016.41;;;-3.14;100.00
54978;BME280;40873;47.522;19.106;2022-12-18T04:04:16;102022.34;;;-3.18;100.00
54978;BME280;40873;47.522;19.106;2022-12-18T04:06:46;102030.16;;;-3.15;100.00
54978;BME280;40873;47.522;19.106;2022-12-18T04:09:15;102038.69;;;-3.19;100.00
54978;BME280;40873;47.522;19.106;2022-12-18T04:11:42;102031.72;;;-3.22;100.00
54978;BME280;40873;47.522;19.106;2022-12-18T04:14:12;102036.16;;;-3.16;100.00
54978;BME280;40873;47.522;19.106;2022-12-18T04:16:43;102043.09;;;-3.14;100.00
54978;BME280;40873;47.522;19.106;2022-12-18T04:19:10;102028.06;;;-3.32;100.00
54978;BME280;40873;47.522;19.106;2022-12-18T04:21:37;102022.94;;;-3.30;100.00
54978;BME280;40873;47.522;19.106;2022-12-18T04:24:04;102035.13;;;-3.24;100.00
54978;BME280;40873;47.522;19.106;2022-12-18T04:26:31;102027.28;;;-3.27;100.00
54978;BME280;40873;47.522;19.106;2022-12-18T04:28:58;102037.56;;;-3.31;100.00
54978;BME280;40873;47.522;19.106;2022-12-18T04:31:25;102040.97;;;-3.32;100.00
54978;BME280;40873;47.522;19.106;2022-12-18T04:33:52;102041.00;;;-3.30;100.00
54978;BME280;40873;47.522;19.106;2022-12-18T04:36:19;102043.56;;;-3.32;100.00
54978;BME280;40873;47.522;19.106;2022-12-18T04:38:46;102053.03;;;-3.31;100.00
54978;BME280;40873;47.522;19.106;2022-12-18T04:41:13;102056.63;;;-3.24;100.00
54978;BME280;40873;47.522;19.106;2022-12-18T04:43:40;102055.78;;;-3.24;100.00
54978;BME280;40873;47.522;19.106;2022-12-18T04:46:08;102060.47;;;-3.43;100.00
54978;BME280;40873;47.522;19.106;2022-12-18T04:48:36;102065.56;;;-3.47;100.00
54978;BME280;40873;47.522;19.106;2022-12-18T04:51:03;102075.03;;;-3.46;100.00
54978;BME280;40873;47.522;19.106;2022-12-18T04:53:31;102077.53;;;-3.49;100.00
54978;BME280;40873;47.522;19.106;2022-12-18T04:56:09;102077.63;;;-3.46;100.00
54978;BME280;40873;47.522;19.106;2022-12-18T04:58:38;102078.53;;;-3.43;100.00
54978;BME280;40873;47.522;19.106;2022-12-18T05:01:07;102087.78;;;-3.52;100.00
54978;BME280;40873;47.522;19.106;2022-12-18T05:03:37;102083.56;;;-3.49;100.00
54978;BME280;40873;47.522;19.106;2022-12-18T05:06:05;102095.59;;;-3.49;100.00
54978;BME280;40873;47.522;19.106;2022-12-18T05:08:33;102093.94;;;-3.47;100.00
54978;BME280;40873;47.522;19.106;2022-12-18T05:11:01;102099.81;;;-3.53;100.00
54978;BME280;40873;47.522;19.106;2022-12-18T05:13:28;102102.38;;;-3.53;100.00
54978;BME280;40873;47.522;19.106;2022-12-18T05:15:56;102098.41;;;-3.40;100.00
54978;BME280;40873;47.522;19.106;2022-12-18T05:18:23;102100.16;;;-3.39;100.00
54978;BME280;40873;47.522;19.106;2022-12-18T05:20:51;102105.38;;;-3.36;100.00
54978;BME280;40873;47.522;19.106;2022-12-18T05:23:19;102103.56;;;-3.40;100.00
54978;BME280;40873;47.522;19.106;2022-12-18T05:25:58;102101.75;;;-3.44;100.00
54978;BME280;40873;47.522;19.106;2022-12-18T05:28:27;102115.47;;;-3.45;100.00
54978;BME280;40873;47.522;19.106;2022-12-18T05:30:56;102123.25;;;-3.44;100.00
54978;BME280;40873;47.522;19.106;2022-12-18T05:33:25;102119.78;;;-3.46;100.00
54978;BME280;40873;47.522;19.106;2022-12-18T05:35:57;102122.31;;;-3.47;100.00
54978;BME280;40873;47.522;19.106;2022-12-18T05:38:25;102125.63;;;-3.51;100.00
54978;BME280;40873;47.522;19.106;2022-12-18T05:40:53;102126.31;;;-3.59;100.00
54978;BME280;40873;47.522;19.106;2022-12-18T05:43:21;102125.81;;;-3.45;100.00
54978;BME280;40873;47.522;19.106;2022-12-18T05:45:48;102127.19;;;-3.58;100.00
54978;BME280;40873;47.522;19.106;2022-12-18T05:48:16;102130.06;;;-3.47;100.00
54978;BME280;40873;47.522;19.106;2022-12-18T05:50:44;102135.84;;;-3.56;100.00
54978;BME280;40873;47.522;19.106;2022-12-18T05:53:13;102140.09;;;-3.58;100.00
54978;BME280;40873;47.522;19.106;2022-12-18T05:55:41;102140.13;;;-3.56;100.00
54978;BME280;40873;47.522;19.106;2022-12-18T05:58:09;102146.94;;;-3.60;100.00
54978;BME280;40873;47.522;19.106;2022-12-18T06:00:39;102146.78;;;-3.65;100.00
54978;BME280;40873;47.522;19.106;2022-12-18T06:03:10;102145.19;;;-3.61;100.00
54978;BME280;40873;47.522;19.106;2022-12-18T06:05:39;102153.66;;;-3.65;100.00
54978;BME280;40873;47.522;19.106;2022-12-18T06:08:07;102163.84;;;-3.70;100.00
54978;BME280;40873;47.522;19.106;2022-12-18T06:10:34;102161.25;;;-3.70;100.00
54978;BME280;40873;47.522;19.106;2022-12-18T06:13:01;102150.09;;;-3.69;100.00
54978;BME280;40873;47.522;19.106;2022-12-18T06:15:31;102150.34;;;-3.61;100.00
54978;BME280;40873;47.522;19.106;2022-12-18T06:18:00;102153.81;;;-3.59;100.00
54978;BME280;40873;47.522;19.106;2022-12-18T06:20:27;102163.09;;;-3.66;100.00
54978;BME280;40873;47.522;19.106;2022-12-18T06:22:59;102157.91;;;-3.67;100.00
54978;BME280;40873;47.522;19.106;2022-12-18T06:25:26;102168.34;;;-3.63;100.00
54978;BME280;40873;47.522;19.106;2022-12-18T06:27:53;102166.88;;;-3.53;100.00
54978;BME280;40873;47.522;19.106;2022-12-18T06:30:20;102173.66;;;-3.56;100.00
54978;BME280;40873;47.522;19.106;2022-12-18T06:32:48;102170.19;;;-3.59;100.00
54978;BME280;40873;47.522;19.106;2022-12-18T06:35:22;102184.59;;;-3.67;100.00
54978;BME280;40873;47.522;19.106;2022-12-18T06:37:49;102183.53;;;-3.73;100.00
54978;BME280;40873;47.522;19.106;2022-12-18T06:40:16;102193.84;;;-3.73;100.00
54978;BME280;40873;47.522;19.106;2022-12-18T06:42:43;102197.16;;;-3.77;100.00
54978;BME280;40873;47.522;19.106;2022-12-18T06:45:10;102206.13;;;-3.65;100.00
54978;BME280;40873;47.522;19.106;2022-12-18T06:47:38;102212.56;;;-3.80;100.00
54978;BME280;40873;47.522;19.106;2022-12-18T06:50:06;102214.31;;;-3.79;100.00
54978;BME280;40873;47.522;19.106;2022-12-18T06:52:33;102217.72;;;-3.80;100.00
54978;BME280;40873;47.522;19.106;2022-12-18T06:55:00;102222.19;;;-3.75;100.00
54978;BME280;40873;47.522;19.106;2022-12-18T06:57:28;102223.78;;;-3.78;100.00
54978;BME280;40873;47.522;19.106;2022-12-18T06:59:54;102234.22;;;-3.75;100.00
54978;BME280;40873;47.522;19.106;2022-12-18T07:02:21;102234.06;;;-3.80;100.00
54978;BME280;40873;47.522;19.106;2022-12-18T07:04:48;102235.81;;;-3.79;100.00
54978;BME280;40873;47.522;19.106;2022-12-18T07:07:16;102241.00;;;-3.77;100.00
54978;BME280;40873;47.522;19.106;2022-12-18T07:09:42;102239.97;;;-3.84;100.00
54978;BME280;40873;47.522;19.106;2022-12-18T07:12:10;102242.69;;;-3.79;100.00
54978;BME280;40873;47.522;19.106;2022-12-18T07:14:36;102251.31;;;-3.77;100.00
54978;BME280;40873;47.522;19.106;2022-12-18T07:17:04;102243.78;;;-3.71;100.00
54978;BME280;40873;47.522;19.106;2022-12-18T07:19:32;102253.25;;;-3.70;100.00
54978;BME280;40873;47.522;19.106;2022-12-18T07:21:59;102257.66;;;-3.68;100.00
54978;BME280;40873;47.522;19.106;2022-12-18T07:24:27;102258.63;;;-3.63;100.00
54978;BME280;40873;47.522;19.106;2022-12-18T07:26:54;102261.09;;;-3.67;100.00
54978;BME280;40873;47.522;19.106;2022-12-18T07:29:21;102269.59;;;-3.70;100.00
54978;BME280;40873;47.522;19.106;2022-12-18T07:31:50;102274.03;;;-3.66;100.00
54978;BME280;40873;47.522;19.106;2022-12-18T07:34:17;102283.69;;;-3.59;100.00
54978;BME280;40873;47.522;19.106;2022-12-18T07:36:44;102292.56;;;-3.49;100.00
54978;BME280;40873;47.522;19.106;2022-12-18T07:39:11;102289.13;;;-3.48;100.00
54978;BME280;40873;47.522;19.106;2022-12-18T07:41:38;102290.06;;;-3.46;100.00
54978;BME280;40873;47.522;19.106;2022-12-18T07:44:12;102293.66;;;-3.41;100.00
54978;BME280;40873;47.522;19.106;2022-12-18T07:46:39;102293.91;;;-3.32;100.00
54978;BME280;40873;47.522;19.106;2022-12-18T07:49:06;102305.00;;;-3.34;100.00
54978;BME280;40873;47.522;19.106;2022-12-18T07:51:33;102302.66;;;-3.26;100.00
54978;BME280;40873;47.522;19.106;2022-12-18T07:54:00;102306.84;;;-3.30;100.00
54978;BME280;40873;47.522;19.106;2022-12-18T07:56:27;102315.84;;;-3.16;100.00
54978;BME280;40873;47.522;19.106;2022-12-18T07:58:58;102308.13;;;-3.14;100.00
54978;BME280;40873;47.522;19.106;2022-12-18T08:01:25;102317.75;;;-3.09;100.00
54978;BME280;40873;47.522;19.106;2022-12-18T08:03:53;102326.69;;;-2.97;100.00
54978;BME280;40873;47.522;19.106;2022-12-18T08:06:20;102320.00;;;-2.89;100.00
54978;BME280;40873;47.522;19.106;2022-12-18T08:08:53;102320.06;;;-2.86;100.00
54978;BME280;40873;47.522;19.106;2022-12-18T08:11:22;102339.19;;;-2.80;100.00
54978;BME280;40873;47.522;19.106;2022-12-18T08:13:49;102338.41;;;-2.77;100.00
54978;BME280;40873;47.522;19.106;2022-12-18T08:16:16;102344.72;;;-2.66;100.00
54978;BME280;40873;47.522;19.106;2022-12-18T08:18:43;102342.97;;;-2.67;100.00
54978;BME280;40873;47.522;19.106;2022-12-18T08:21:12;102342.41;;;-2.55;100.00
54978;BME280;40873;47.522;19.106;2022-12-18T08:23:39;102338.94;;;-2.57;100.00
54978;BME280;40873;47.522;19.106;2022-12-18T08:26:11;102339.03;;;-2.53;100.00
54978;BME280;40873;47.522;19.106;2022-12-18T08:28:38;102344.34;;;-2.46;100.00
54978;BME280;40873;47.522;19.106;2022-12-18T08:31:08;102341.69;;;-2.50;100.00
54978;BME280;40873;47.522;19.106;2022-12-18T08:33:36;102347.75;;;-2.49;100.00
54978;BME280;40873;47.522;19.106;2022-12-18T08:36:05;102350.47;;;-2.43;100.00
54978;BME280;40873;47.522;19.106;2022-12-18T08:38:32;102352.03;;;-2.50;100.00
54978;BME280;40873;47.522;19.106;2022-12-18T08:41:08;102341.75;;;-2.46;100.00
54978;BME280;40873;47.522;19.106;2022-12-18T08:43:35;102348.13;;;-2.34;100.00
54978;BME280;40873;47.522;19.106;2022-12-18T08:46:24;102352.56;;;-2.28;100.00
54978;BME280;40873;47.522;19.106;2022-12-18T08:48:51;102353.44;;;-2.28;100.00
54978;BME280;40873;47.522;19.106;2022-12-18T08:51:19;102357.75;;;-2.27;100.00
54978;BME280;40873;47.522;19.106;2022-12-18T08:53:46;102362.97;;;-2.25;100.00
54978;BME280;40873;47.522;19.106;2022-12-18T08:56:14;102368.28;;;-2.19;100.00
54978;BME280;40873;47.522;19.106;2022-12-18T08:58:42;102372.78;;;-2.12;100.00
54978;BME280;40873;47.522;19.106;2022-12-18T09:01:11;102365.16;;;-2.06;100.00
54978;BME280;40873;47.522;19.106;2022-12-18T09:03:39;102373.72;;;-2.08;100.00
54978;BME280;40873;47.522;19.106;2022-12-18T09:06:07;102385.88;;;-2.04;100.00
54978;BME280;40873;47.522;19.106;2022-12-18T09:08:34;102384.31;;;-1.98;100.00
54978;BME280;40873;47.522;19.106;2022-12-18T09:11:02;102377.75;;;-1.83;100.00
54978;BME280;40873;47.522;19.106;2022-12-18T09:13:29;102384.97;;;-1.69;100.00
54978;BME280;40873;47.522;19.106;2022-12-18T09:15:56;102387.50;;;-1.73;99.50
54978;BME280;40873;47.522;19.106;2022-12-18T09:18:24;102387.84;;;-1.56;99.82
54978;BME280;40873;47.522;19.106;2022-12-18T09:20:51;102383.13;;;-1.35;97.22
54978;BME280;40873;47.522;19.106;2022-12-18T09:23:22;102386.97;;;-1.18;96.43
54978;BME280;40873;47.522;19.106;2022-12-18T09:25:49;102371.84;;;-0.95;95.08
54978;BME280;40873;47.522;19.106;2022-12-18T09:28:17;102373.81;;;-0.83;91.84
54978;BME280;40873;47.522;19.106;2022-12-18T09:30:47;102374.75;;;-0.28;91.17
54978;BME280;40873;47.522;19.106;2022-12-18T09:33:15;102370.31;;;0.19;88.93
54978;BME280;40873;47.522;19.106;2022-12-18T09:35:44;102373.44;;;0.56;87.08
54978;BME280;40873;47.522;19.106;2022-12-18T09:38:14;102378.31;;;1.00;84.85
54978;BME280;40873;47.522;19.106;2022-12-18T09:40:47;102373.28;;;1.18;83.06
54978;BME280;40873;47.522;19.106;2022-12-18T09:43:20;102373.44;;;1.32;80.92
54978;BME280;40873;47.522;19.106;2022-12-18T09:46:03;102375.41;;;1.54;80.34
54978;BME280;40873;47.522;19.106;2022-12-18T09:48:35;102370.34;;;1.73;77.81
54978;BME280;40873;47.522;19.106;2022-12-18T09:51:12;102379.13;;;1.81;76.64
54978;BME280;40873;47.522;19.106;2022-12-18T09:53:41;102371.44;;;2.01;74.39
54978;BME280;40873;47.522;19.106;2022-12-18T09:56:16;102366.31;;;2.14;73.64
54978;BME280;40873;47.522;19.106;2022-12-18T09:59:02;102369.84;;;2.21;75.26
54978;BME280;40873;47.522;19.106;2022-12-18T10:01:30;102376.84;;;2.33;75.61
54978;BME280;40873;47.522;19.106;2022-12-18T10:04:09;102375.88;;;2.15;74.62
54978;BME280;40873;47.522;19.106;2022-12-18T10:06:50;102371.66;;;2.36;71.37
54978;BME280;40873;47.522;19.106;2022-12-18T10:09:41;102365.75;;;2.64;70.92
54978;BME280;40873;47.522;19.106;2022-12-18T10:12:29;102371.88;;;2.74;71.99
54978;BME280;40873;47.522;19.106;2022-12-18T10:15:13;102370.94;;;2.61;71.90
54978;BME280;40873;47.522;19.106;2022-12-18T10:17:53;102365.81;;;2.83;71.56
54978;BME280;40873;47.522;19.106;2022-12-18T10:20:40;102364.13;;;2.94;71.81
54978;BME280;40873;47.522;19.106;2022-12-18T10:23:19;102355.50;;;3.32;69.82
54978;BME280;40873;47.522;19.106;2022-12-18T10:26:10;102355.56;;;3.48;68.11
54978;BME280;40873;47.522;19.106;2022-12-18T10:28:37;102355.53;;;3.42;68.09
54978;BME280;40873;47.522;19.106;2022-12-18T10:31:32;102349.47;;;3.91;65.74
54978;BME280;40873;47.522;19.106;2022-12-18T10:33:59;102352.91;;;4.00;65.65
54978;BME280;40873;47.522;19.106;2022-12-18T10:36:26;102350.28;;;4.09;63.73
54978;BME280;40873;47.522;19.106;2022-12-18T10:38:53;102345.00;;;4.42;63.59
54978;BME280;40873;47.522;19.106;2022-12-18T10:46:49;102354.47;;;4.75;60.54
54978;BME280;40873;47.522;19.106;2022-12-18T10:49:26;102350.97;;;4.71;59.59
54978;BME280;40873;47.522;19.106;2022-12-18T10:52:17;102352.56;;;5.06;58.76
54978;BME280;40873;47.522;19.106;2022-12-18T10:55:04;102349.41;;;4.20;59.47
54978;BME280;40873;47.522;19.106;2022-12-18T10:57:39;102351.00;;;4.59;60.46
54978;BME280;40873;47.522;19.106;2022-12-18T11:02:47;102347.41;;;4.90;60.54
54978;BME280;40873;47.522;19.106;2022-12-18T11:07:53;102337.72;;;5.09;56.90
54978;BME280;40873;47.522;19.106;2022-12-18T11:10:26;102342.84;;;5.29;57.78
54978;BME280;40873;47.522;19.106;2022-12-18T11:12:55;102345.22;;;5.58;57.43
54978;BME280;40873;47.522;19.106;2022-12-18T11:15:29;102337.72;;;5.09;58.48
54978;BME280;40873;47.522;19.106;2022-12-18T11:17:57;102341.41;;;4.70;57.22
54978;BME280;40873;47.522;19.106;2022-12-18T11:20:31;102337.06;;;4.58;57.93
54978;BME280;40873;47.522;19.106;2022-12-18T11:23:00;102333.53;;;4.75;57.59
54978;BME280;40873;47.522;19.106;2022-12-18T11:25:30;102334.44;;;4.74;58.92
54978;BME280;40873;47.522;19.106;2022-12-18T11:28:03;102338.69;;;4.91;58.64
54978;BME280;40873;47.522;19.106;2022-12-18T11:30:35;102337.03;;;4.74;59.86
54978;BME280;40873;47.522;19.106;2022-12-18T11:33:10;102335.34;;;4.57;59.67
54978;BME280;40873;47.522;19.106;2022-12-18T11:35:47;102331.03;;;4.53;59.09
54978;BME280;40873;47.522;19.106;2022-12-18T11:38:28;102325.00;;;4.16;59.44
54978;BME280;40873;47.522;19.106;2022-12-18T11:46:43;102326.81;;;3.30;60.84
54978;BME280;40873;47.522;19.106;2022-12-18T11:49:17;102322.41;;;3.01;62.35
54978;BME280;40873;47.522;19.106;2022-12-18T11:54:29;102323.25;;;2.85;63.46
54978;BME280;40873;47.522;19.106;2022-12-18T11:57:20;102322.38;;;2.83;66.19
54978;BME280;40873;47.522;19.106;2022-12-18T12:17:29;102312.75;;;2.70;66.06
54978;BME280;40873;47.522;19.106;2022-12-18T12:25:39;102302.41;;;2.85;65.79
54978;BME280;40873;47.522;19.106;2022-12-18T12:31:06;102309.31;;;2.74;65.36
54978;BME280;40873;47.522;19.106;2022-12-18T12:33:45;102311.91;;;2.65;68.31
54978;BME280;40873;47.522;19.106;2022-12-18T12:36:21;102316.25;;;2.64;66.49
54978;BME280;40873;47.522;19.106;2022-12-18T12:38:57;102313.59;;;2.63;67.83
54978;BME280;40873;47.522;19.106;2022-12-18T12:41:31;102314.53;;;2.74;65.17
54978;BME280;40873;47.522;19.106;2022-12-18T12:44:31;102312.72;;;2.62;65.77
54978;BME280;40873;47.522;19.106;2022-12-18T12:47:47;102323.22;;;2.76;67.90
54978;BME280;40873;47.522;19.106;2022-12-18T12:49:55;102326.72;;;2.83;67.63
54978;BME280;40873;47.522;19.106;2022-12-18T12:54:56;102338.00;;;2.83;68.03
54978;BME280;40873;47.522;19.106;2022-12-18T13:05:25;102341.41;;;2.64;68.84
54978;BME280;40873;47.522;19.106;2022-12-18T13:08:08;102350.06;;;2.54;70.92
54978;BME280;40873;47.522;19.106;2022-12-18T13:15:39;102348.28;;;2.43;72.27
54978;BME280;40873;47.522;19.106;2022-12-18T13:20:40;102354.41;;;2.53;73.07
54978;BME280;40873;47.522;19.106;2022-12-18T13:36:57;102367.47;;;2.62;70.47
54978;BME280;40873;47.522;19.106;2022-12-18T13:39:43;102371.88;;;2.72;69.30
54978;BME280;40873;47.522;19.106;2022-12-18T13:44:58;102365.84;;;2.90;67.08
54978;BME280;40873;47.522;19.106;2022-12-18T13:47:33;102373.59;;;2.75;67.72
54978;BME280;40873;47.522;19.106;2022-12-18T13:50:09;102371.84;;;2.77;67.57
54978;BME280;40873;47.522;19.106;2022-12-18T13:52:38;102376.19;;;2.66;68.41
54978;BME280;40873;47.522;19.106;2022-12-18T13:55:14;102379.63;;;2.59;68.81
54978;BME280;40873;47.522;19.106;2022-12-18T13:57:42;102381.38;;;2.64;68.14
54978;BME280;40873;47.522;19.106;2022-12-18T14:02:51;102391.59;;;2.29;71.18
54978;BME280;40873;47.522;19.106;2022-12-18T14:05:27;102386.50;;;2.47;69.61
54978;BME280;40873;47.522;19.106;2022-12-18T14:08:01;102379.53;;;2.50;69.35
54978;BME280;40873;47.522;19.106;2022-12-18T14:10:35;102397.78;;;2.46;70.08
54978;BME280;40873;47.522;19.106;2022-12-18T14:13:22;102389.84;;;2.28;70.95
54978;BME280;40873;47.522;19.106;2022-12-18T14:15:51;102391.44;;;2.08;73.28
54978;BME280;40873;47.522;19.106;2022-12-18T14:18:22;102388.06;;;2.18;72.40
54978;BME280;40873;47.522;19.106;2022-12-18T14:20:51;102397.47;;;1.99;74.42
54978;BME280;40873;47.522;19.106;2022-12-18T14:23:37;102393.88;;;1.86;76.65
54978;BME280;40873;47.522;19.106;2022-12-18T14:26:26;102387.03;;;1.96;75.16
54978;BME280;40873;47.522;19.106;2022-12-18T14:28:57;102388.66;;;1.83;76.59
54978;BME280;40873;47.522;19.106;2022-12-18T14:31:26;102391.22;;;1.79;76.47
54978;BME280;40873;47.522;19.106;2022-12-18T14:33:53;102386.00;;;1.74;76.70
54978;BME280;40873;47.522;19.106;2022-12-18T14:36:23;102399.75;;;1.64;77.73
54978;BME280;40873;47.522;19.106;2022-12-18T14:38:53;102395.59;;;1.81;77.45
54978;BME280;40873;47.522;19.106;2022-12-18T14:41:21;102406.03;;;1.84;76.97
54978;BME280;40873;47.522;19.106;2022-12-18T14:43:53;102401.50;;;1.65;78.12
54978;BME280;40873;47.522;19.106;2022-12-18T14:46:35;102410.84;;;1.45;79.50